Macatuba, Brazil
Current Conditions -  °F | °C
As of 6:00 AM on Monday 20 Oct 2014 (Local Time) from SBBU Reporting Station
Clear Clear  
Wind Chill: 68°   Ceiling: Unl
Heat Index: 68°   Visibility: 6mi
Dew Point: 68°   Wind: 1mph
Humidity: 100%   Direction: 260°W
Pressure: 30"   Gusts: NA
Location:  22.5°S, 48.71°W
Report Text: SBBU 200900Z 26001KT CAVOK 20/20 Q1016
Loading
Personal Weather Stations






























Interactive Weather Map
Tropical Storm Tracking
New forecast layout! Learn more

10-Day Weather Forecast

Advertisements
Track Severe Weather on mobile